sensor_id;sensor_type;location;lat;lon;timestamp;pressure;altitude;pressure_sealevel;temperature;humidity
64792;BME280;51226;47.504;19.074;2022-11-25T00:00:42;100263.00;;;6.23;74.15
64792;BME280;51226;47.504;19.074;2022-11-25T00:03:56;100263.87;;;6.24;74.19
64792;BME280;51226;47.504;19.074;2022-11-25T00:07:00;100263.00;;;6.23;74.14
64792;BME280;51226;47.504;19.074;2022-11-25T00:10:03;100263.00;;;6.23;73.97
64792;BME280;51226;47.504;19.074;2022-11-25T00:13:06;100263.25;;;6.11;74.31
64792;BME280;51226;47.504;19.074;2022-11-25T00:16:11;100272.59;;;6.09;74.52
64792;BME280;51226;47.504;19.074;2022-11-25T00:19:16;100273.66;;;6.13;74.49
64792;BME280;51226;47.504;19.074;2022-11-25T00:22:18;100272.94;;;6.16;74.32
64792;BME280;51226;47.504;19.074;2022-11-25T00:25:21;100275.63;;;6.17;74.16
64792;BME280;51226;47.504;19.074;2022-11-25T00:28:26;100273.25;;;6.05;74.65
64792;BME280;51226;47.504;19.074;2022-11-25T00:31:31;100286.81;;;6.01;74.83
64792;BME280;51226;47.504;19.074;2022-11-25T00:34:34;100286.91;;;6.03;74.88
64792;BME280;51226;47.504;19.074;2022-11-25T00:37:37;100294.84;;;6.06;74.82
64792;BME280;51226;47.504;19.074;2022-11-25T00:40:41;100290.41;;;6.03;74.95
64792;BME280;51226;47.504;19.074;2022-11-25T00:43:44;100292.09;;;6.03;75.06
64792;BME280;51226;47.504;19.074;2022-11-25T00:50:10;100303.97;;;5.99;75.12
64792;BME280;51226;47.504;19.074;2022-11-25T00:53:13;100300.75;;;6.03;74.95
64792;BME280;51226;47.504;19.074;2022-11-25T00:56:16;100296.28;;;6.01;74.89
64792;BME280;51226;47.504;19.074;2022-11-25T00:59:19;100301.47;;;6.01;74.88
64792;BME280;51226;47.504;19.074;2022-11-25T01:02:22;100304.94;;;6.01;74.80
64792;BME280;51226;47.504;19.074;2022-11-25T01:05:25;100303.34;;;6.03;74.69
64792;BME280;51226;47.504;19.074;2022-11-25T01:08:29;100311.81;;;6.01;74.76
64792;BME280;51226;47.504;19.074;2022-11-25T01:11:32;100311.03;;;6.02;74.78
64792;BME280;51226;47.504;19.074;2022-11-25T01:14:36;100310.94;;;6.00;74.87
64792;BME280;51226;47.504;19.074;2022-11-25T01:17:39;100308.06;;;5.96;75.06
64792;BME280;51226;47.504;19.074;2022-11-25T01:20:42;100307.19;;;5.95;75.24
64792;BME280;51226;47.504;19.074;2022-11-25T01:23:45;100309.50;;;5.90;75.48
64792;BME280;51226;47.504;19.074;2022-11-25T01:26:48;100316.31;;;5.88;75.49
64792;BME280;51226;47.504;19.074;2022-11-25T01:29:51;100321.13;;;5.82;75.70
64792;BME280;51226;47.504;19.074;2022-11-25T01:32:54;100325.25;;;5.79;75.81
64792;BME280;51226;47.504;19.074;2022-11-25T01:36:05;100319.00;;;5.75;76.03
64792;BME280;51226;47.504;19.074;2022-11-25T01:39:17;100323.19;;;5.73;76.16
64792;BME280;51226;47.504;19.074;2022-11-25T01:42:20;100327.47;;;5.72;76.27
64792;BME280;51226;47.504;19.074;2022-11-25T01:48:48;100322.94;;;5.68;76.29
64792;BME280;51226;47.504;19.074;2022-11-25T01:55:26;100336.06;;;5.71;76.16
64792;BME280;51226;47.504;19.074;2022-11-25T01:58:34;100334.38;;;5.72;76.32
64792;BME280;51226;47.504;19.074;2022-11-25T02:01:38;100331.31;;;5.64;76.52
64792;BME280;51226;47.504;19.074;2022-11-25T02:04:42;100336.31;;;5.61;76.49
64792;BME280;51226;47.504;19.074;2022-11-25T02:07:47;100322.31;;;5.57;76.53
64792;BME280;51226;47.504;19.074;2022-11-25T02:10:54;100335.81;;;5.52;77.04
64792;BME280;51226;47.504;19.074;2022-11-25T02:13:58;100337.25;;;5.47;77.33
64792;BME280;51226;47.504;19.074;2022-11-25T02:17:01;100339.00;;;5.48;77.43
64792;BME280;51226;47.504;19.074;2022-11-25T02:20:11;100337.06;;;5.44;77.55
64792;BME280;51226;47.504;19.074;2022-11-25T02:26:30;100340.44;;;5.43;77.34
64792;BME280;51226;47.504;19.074;2022-11-25T02:29:33;100338.69;;;5.42;77.27
64792;BME280;51226;47.504;19.074;2022-11-25T02:32:46;100343.03;;;5.43;77.01
64792;BME280;51226;47.504;19.074;2022-11-25T02:39:00;100340.34;;;5.41;76.88
64792;BME280;51226;47.504;19.074;2022-11-25T02:42:05;100341.97;;;5.39;76.93
64792;BME280;51226;47.504;19.074;2022-11-25T02:45:11;100328.75;;;5.34;77.05
64792;BME280;51226;47.504;19.074;2022-11-25T02:48:17;100347.50;;;5.30;77.13
64792;BME280;51226;47.504;19.074;2022-11-25T02:51:23;100353.47;;;5.29;77.19
64792;BME280;51226;47.504;19.074;2022-11-25T02:54:27;100352.41;;;5.26;77.21
64792;BME280;51226;47.504;19.074;2022-11-25T02:57:30;100342.88;;;5.25;77.53
64792;BME280;51226;47.504;19.074;2022-11-25T03:00:33;100340.53;;;5.29;77.64
64792;BME280;51226;47.504;19.074;2022-11-25T03:03:37;100341.44;;;5.30;77.73
64792;BME280;51226;47.504;19.074;2022-11-25T03:06:41;100345.81;;;5.31;77.70
64792;BME280;51226;47.504;19.074;2022-11-25T03:09:43;100351.88;;;5.31;77.70
64792;BME280;51226;47.504;19.074;2022-11-25T03:12:46;100356.06;;;5.29;77.74
64792;BME280;51226;47.504;19.074;2022-11-25T03:15:49;100354.97;;;5.26;77.61
64792;BME280;51226;47.504;19.074;2022-11-25T03:18:52;100357.47;;;5.24;77.62
64792;BME280;51226;47.504;19.074;2022-11-25T03:21:55;100363.47;;;5.23;77.44
64792;BME280;51226;47.504;19.074;2022-11-25T03:24:58;100368.28;;;5.17;77.51
64792;BME280;51226;47.504;19.074;2022-11-25T03:28:02;100374.22;;;5.16;77.40
64792;BME280;51226;47.504;19.074;2022-11-25T03:31:09;100391.53;;;5.17;77.23
64792;BME280;51226;47.504;19.074;2022-11-25T03:34:13;100396.06;;;5.21;77.02
64792;BME280;51226;47.504;19.074;2022-11-25T03:37:16;100392.69;;;5.22;77.05
64792;BME280;51226;47.504;19.074;2022-11-25T03:40:19;100398.06;;;5.25;76.98
64792;BME280;51226;47.504;19.074;2022-11-25T03:43:21;100406.19;;;5.31;76.93
64792;BME280;51226;47.504;19.074;2022-11-25T03:46:25;100407.66;;;5.28;77.01
64792;BME280;51226;47.504;19.074;2022-11-25T03:49:29;100406.59;;;5.24;77.12
64792;BME280;51226;47.504;19.074;2022-11-25T03:52:32;100403.03;;;5.22;77.43
64792;BME280;51226;47.504;19.074;2022-11-25T03:55:35;100393.44;;;5.19;77.51
64792;BME280;51226;47.504;19.074;2022-11-25T03:58:38;100403.03;;;5.22;77.14
64792;BME280;51226;47.504;19.074;2022-11-25T04:01:41;100398.59;;;5.19;76.97
64792;BME280;51226;47.504;19.074;2022-11-25T04:04:46;100407.34;;;5.22;76.88
64792;BME280;51226;47.504;19.074;2022-11-25T04:07:49;100411.00;;;5.25;76.77
64792;BME280;51226;47.504;19.074;2022-11-25T04:10:59;100406.50;;;5.23;76.87
64792;BME280;51226;47.504;19.074;2022-11-25T04:14:02;100411.19;;;5.28;76.42
64792;BME280;51226;47.504;19.074;2022-11-25T04:17:05;100423.91;;;5.25;76.61
64792;BME280;51226;47.504;19.074;2022-11-25T04:20:12;100418.84;;;5.27;76.47
64792;BME280;51226;47.504;19.074;2022-11-25T04:23:16;100417.78;;;5.23;76.45
64792;BME280;51226;47.504;19.074;2022-11-25T04:26:19;100426.41;;;5.24;76.39
64792;BME280;51226;47.504;19.074;2022-11-25T04:29:22;100435.12;;;5.26;76.30
64792;BME280;51226;47.504;19.074;2022-11-25T04:32:25;100433.37;;;5.25;76.35
64792;BME280;51226;47.504;19.074;2022-11-25T04:35:29;100436.66;;;5.22;76.50
64792;BME280;51226;47.504;19.074;2022-11-25T04:38:32;100441.22;;;5.26;76.28
64792;BME280;51226;47.504;19.074;2022-11-25T04:41:35;100447.88;;;5.23;76.32
64792;BME280;51226;47.504;19.074;2022-11-25T04:44:38;100451.19;;;5.20;76.35
64792;BME280;51226;47.504;19.074;2022-11-25T04:47:42;100456.47;;;5.22;76.38
64792;BME280;51226;47.504;19.074;2022-11-25T04:50:46;100453.59;;;5.17;76.46
64792;BME280;51226;47.504;19.074;2022-11-25T04:53:49;100454.22;;;5.13;76.36
64792;BME280;51226;47.504;19.074;2022-11-25T04:56:52;100451.69;;;5.14;76.25
64792;BME280;51226;47.504;19.074;2022-11-25T04:59:55;100456.69;;;5.11;76.33
64792;BME280;51226;47.504;19.074;2022-11-25T05:02:58;100465.16;;;5.09;76.34
64792;BME280;51226;47.504;19.074;2022-11-25T05:06:08;100469.94;;;5.03;76.39
64792;BME280;51226;47.504;19.074;2022-11-25T05:09:12;100475.81;;;5.00;76.49
64792;BME280;51226;47.504;19.074;2022-11-25T05:12:18;100481.00;;;5.00;76.46
64792;BME280;51226;47.504;19.074;2022-11-25T05:15:21;100490.03;;;5.07;77.29
64792;BME280;51226;47.504;19.074;2022-11-25T05:18:24;100502.66;;;5.02;77.35
64792;BME280;51226;47.504;19.074;2022-11-25T05:21:27;100502.38;;;5.26;75.50
64792;BME280;51226;47.504;19.074;2022-11-25T05:24:30;100499.69;;;5.24;75.68
64792;BME280;51226;47.504;19.074;2022-11-25T05:27:33;100505.28;;;5.17;75.76
64792;BME280;51226;47.504;19.074;2022-11-25T05:30:37;100515.19;;;4.96;76.48
64792;BME280;51226;47.504;19.074;2022-11-25T05:33:39;100516.91;;;4.82;77.28
64792;BME280;51226;47.504;19.074;2022-11-25T05:36:43;100522.97;;;4.82;77.42
64792;BME280;51226;47.504;19.074;2022-11-25T05:39:46;100529.50;;;4.91;77.27
64792;BME280;51226;47.504;19.074;2022-11-25T05:42:50;100528.63;;;4.90;77.23
64792;BME280;51226;47.504;19.074;2022-11-25T05:45:53;100527.03;;;4.92;77.27
64792;BME280;51226;47.504;19.074;2022-11-25T05:48:57;100537.75;;;4.98;77.05
64792;BME280;51226;47.504;19.074;2022-11-25T05:52:00;100538.25;;;5.06;75.61
64792;BME280;51226;47.504;19.074;2022-11-25T05:55:05;100535.81;;;5.09;75.30
64792;BME280;51226;47.504;19.074;2022-11-25T05:58:08;100547.28;;;5.13;75.01
64792;BME280;51226;47.504;19.074;2022-11-25T06:01:13;100548.59;;;5.06;75.59
64792;BME280;51226;47.504;19.074;2022-11-25T06:04:17;100549.97;;;5.01;76.10
64792;BME280;51226;47.504;19.074;2022-11-25T06:07:20;100554.97;;;4.98;76.20
64792;BME280;51226;47.504;19.074;2022-11-25T06:10:24;100561.12;;;5.00;76.17
64792;BME280;51226;47.504;19.074;2022-11-25T06:13:27;100573.53;;;5.06;76.12
64792;BME280;51226;47.504;19.074;2022-11-25T06:16:30;100575.41;;;5.08;76.11
64792;BME280;51226;47.504;19.074;2022-11-25T06:19:34;100567.56;;;5.07;76.17
64792;BME280;51226;47.504;19.074;2022-11-25T06:22:37;100582.34;;;5.09;76.23
64792;BME280;51226;47.504;19.074;2022-11-25T06:25:40;100586.63;;;5.09;76.31
64792;BME280;51226;47.504;19.074;2022-11-25T06:28:43;100592.91;;;5.12;76.16
64792;BME280;51226;47.504;19.074;2022-11-25T06:31:48;100588.63;;;5.13;76.22
64792;BME280;51226;47.504;19.074;2022-11-25T06:34:53;100594.59;;;5.12;76.25
64792;BME280;51226;47.504;19.074;2022-11-25T06:37:58;100592.41;;;5.18;76.06
64792;BME280;51226;47.504;19.074;2022-11-25T06:41:03;100590.81;;;5.20;76.13
64792;BME280;51226;47.504;19.074;2022-11-25T06:44:06;100593.28;;;5.18;76.27
64792;BME280;51226;47.504;19.074;2022-11-25T06:47:09;100594.56;;;5.25;76.10
64792;BME280;51226;47.504;19.074;2022-11-25T06:50:16;100598.84;;;5.25;76.21
64792;BME280;51226;47.504;19.074;2022-11-25T06:53:19;100601.53;;;5.26;76.25
64792;BME280;51226;47.504;19.074;2022-11-25T06:56:26;100610.47;;;5.31;76.24
64792;BME280;51226;47.504;19.074;2022-11-25T06:59:31;100617.63;;;5.35;76.26
64792;BME280;51226;47.504;19.074;2022-11-25T07:02:33;100622.09;;;5.38;76.20
64792;BME280;51226;47.504;19.074;2022-11-25T07:05:45;100628.34;;;5.42;76.04
64792;BME280;51226;47.504;19.074;2022-11-25T07:08:48;100628.62;;;5.46;75.85
64792;BME280;51226;47.504;19.074;2022-11-25T07:11:51;100625.44;;;5.50;75.95
64792;BME280;51226;47.504;19.074;2022-11-25T07:14:54;100634.03;;;5.64;75.24
64792;BME280;51226;47.504;19.074;2022-11-25T07:17:57;100631.84;;;5.70;75.17
64792;BME280;51226;47.504;19.074;2022-11-25T07:21:12;100632.56;;;5.83;75.23
64792;BME280;51226;47.504;19.074;2022-11-25T07:24:16;100630.56;;;5.92;75.12
64792;BME280;51226;47.504;19.074;2022-11-25T07:27:19;100638.09;;;6.02;75.00
64792;BME280;51226;47.504;19.074;2022-11-25T07:30:22;100641.63;;;6.18;74.60
64792;BME280;51226;47.504;19.074;2022-11-25T07:33:45;100651.63;;;6.41;73.78
64792;BME280;51226;47.504;19.074;2022-11-25T07:36:49;100646.63;;;6.59;72.76
64792;BME280;51226;47.504;19.074;2022-11-25T07:39:51;100640.97;;;6.81;71.72
64792;BME280;51226;47.504;19.074;2022-11-25T07:42:54;100644.97;;;7.06;70.59
64792;BME280;51226;47.504;19.074;2022-11-25T07:46:08;100635.78;;;7.28;70.17
64792;BME280;51226;47.504;19.074;2022-11-25T07:49:13;100643.22;;;7.53;69.31
64792;BME280;51226;47.504;19.074;2022-11-25T07:52:16;100646.19;;;7.75;68.21
64792;BME280;51226;47.504;19.074;2022-11-25T07:55:19;100634.25;;;7.95;66.70
64792;BME280;51226;47.504;19.074;2022-11-25T07:58:21;100637.09;;;8.34;66.06
64792;BME280;51226;47.504;19.074;2022-11-25T08:01:25;100637.50;;;8.77;64.86
64792;BME280;51226;47.504;19.074;2022-11-25T08:04:27;100633.72;;;9.24;63.94
64792;BME280;51226;47.504;19.074;2022-11-25T08:07:30;100637.75;;;10.13;61.26
64792;BME280;51226;47.504;19.074;2022-11-25T08:10:39;100632.50;;;11.62;56.67
64792;BME280;51226;47.504;19.074;2022-11-25T08:13:43;100634.19;;;13.11;51.51
64792;BME280;51226;47.504;19.074;2022-11-25T08:16:46;100637.78;;;13.42;50.39
64792;BME280;51226;47.504;19.074;2022-11-25T08:19:49;100641.50;;;13.79;49.52
64792;BME280;51226;47.504;19.074;2022-11-25T08:22:52;100640.13;;;14.57;47.92
64792;BME280;51226;47.504;19.074;2022-11-25T08:25:56;100645.62;;;15.01;46.33
64792;BME280;51226;47.504;19.074;2022-11-25T08:29:00;100639.91;;;15.57;45.81
64792;BME280;51226;47.504;19.074;2022-11-25T08:32:03;100646.63;;;16.77;43.38
64792;BME280;51226;47.504;19.074;2022-11-25T08:35:13;100646.50;;;18.68;38.56
64792;BME280;51226;47.504;19.074;2022-11-25T08:38:16;100636.84;;;21.61;32.71
64792;BME280;51226;47.504;19.074;2022-11-25T08:41:19;100636.47;;;24.20;28.06
64792;BME280;51226;47.504;19.074;2022-11-25T08:44:22;100632.88;;;24.22;26.98
64792;BME280;51226;47.504;19.074;2022-11-25T08:47:30;100630.34;;;25.27;26.32
64792;BME280;51226;47.504;19.074;2022-11-25T08:50:33;100631.91;;;26.62;24.20
64792;BME280;51226;47.504;19.074;2022-11-25T08:53:37;100636.19;;;26.71;23.36
64792;BME280;51226;47.504;19.074;2022-11-25T08:56:41;100624.97;;;25.74;25.18
64792;BME280;51226;47.504;19.074;2022-11-25T08:59:45;100626.09;;;25.13;25.53
64792;BME280;51226;47.504;19.074;2022-11-25T09:02:48;100626.66;;;26.20;24.45
64792;BME280;51226;47.504;19.074;2022-11-25T09:05:52;100623.06;;;28.23;21.77
64792;BME280;51226;47.504;19.074;2022-11-25T09:08:56;100625.91;;;29.00;20.71
64792;BME280;51226;47.504;19.074;2022-11-25T09:12:04;100631.94;;;29.07;20.70
64792;BME280;51226;47.504;19.074;2022-11-25T09:15:07;100617.25;;;30.15;19.66
64792;BME280;51226;47.504;19.074;2022-11-25T09:18:10;100619.78;;;30.63;19.02
64792;BME280;51226;47.504;19.074;2022-11-25T09:21:16;100623.50;;;29.68;19.52
64792;BME280;51226;47.504;19.074;2022-11-25T09:24:19;100627.88;;;29.47;20.00
64792;BME280;51226;47.504;19.074;2022-11-25T09:27:23;100624.06;;;30.01;19.62
64792;BME280;51226;47.504;19.074;2022-11-25T09:30:26;100623.78;;;30.97;18.26
64792;BME280;51226;47.504;19.074;2022-11-25T09:33:28;100615.63;;;30.99;17.85
64792;BME280;51226;47.504;19.074;2022-11-25T09:36:31;100616.84;;;30.70;18.55
64792;BME280;51226;47.504;19.074;2022-11-25T09:39:34;100618.62;;;30.25;18.89
64792;BME280;51226;47.504;19.074;2022-11-25T09:42:48;100625.47;;;28.87;20.20
64792;BME280;51226;47.504;19.074;2022-11-25T09:46:34;100622.47;;;27.83;21.32
64792;BME280;51226;47.504;19.074;2022-11-25T09:50:07;100612.63;;;28.14;21.71
64792;BME280;51226;47.504;19.074;2022-11-25T09:56:34;100596.41;;;31.48;18.45
64792;BME280;51226;47.504;19.074;2022-11-25T10:03:15;100597.94;;;29.32;20.65
64792;BME280;51226;47.504;19.074;2022-11-25T10:06:23;100599.47;;;29.63;20.46
64792;BME280;51226;47.504;19.074;2022-11-25T10:09:30;100600.28;;;32.20;17.22
64792;BME280;51226;47.504;19.074;2022-11-25T10:12:37;100594.81;;;34.10;15.66
64792;BME280;51226;47.504;19.074;2022-11-25T10:15:45;100594.72;;;35.35;14.54
64792;BME280;51226;47.504;19.074;2022-11-25T10:18:58;100593.44;;;36.40;13.48
64792;BME280;51226;47.504;19.074;2022-11-25T10:22:16;100591.75;;;36.51;13.15
64792;BME280;51226;47.504;19.074;2022-11-25T10:25:24;100591.06;;;36.75;13.27
64792;BME280;51226;47.504;19.074;2022-11-25T10:28:31;100589.66;;;37.22;12.94
64792;BME280;51226;47.504;19.074;2022-11-25T10:31:35;100583.75;;;37.54;12.61
64792;BME280;51226;47.504;19.074;2022-11-25T10:34:42;100578.94;;;37.71;12.17
64792;BME280;51226;47.504;19.074;2022-11-25T10:37:50;100573.84;;;37.40;12.40
64792;BME280;51226;47.504;19.074;2022-11-25T10:40:57;100588.63;;;36.98;12.72
64792;BME280;51226;47.504;19.074;2022-11-25T10:44:02;100585.72;;;35.77;13.47
64792;BME280;51226;47.504;19.074;2022-11-25T10:54:31;100581.22;;;33.63;15.43
64792;BME280;51226;47.504;19.074;2022-11-25T10:57:35;100581.69;;;33.02;15.62
64792;BME280;51226;47.504;19.074;2022-11-25T11:00:37;100582.63;;;31.14;17.26
64792;BME280;51226;47.504;19.074;2022-11-25T11:03:45;100579.03;;;31.14;17.08
64792;BME280;51226;47.504;19.074;2022-11-25T11:06:52;100581.19;;;28.74;19.08
64792;BME280;51226;47.504;19.074;2022-11-25T11:10:24;100595.97;;;27.08;21.12
64792;BME280;51226;47.504;19.074;2022-11-25T11:13:28;100601.62;;;23.65;24.97
64792;BME280;51226;47.504;19.074;2022-11-25T11:16:42;100602.47;;;21.06;28.90
64792;BME280;51226;47.504;19.074;2022-11-25T11:20:13;100605.75;;;19.72;31.32
64792;BME280;51226;47.504;19.074;2022-11-25T11:23:17;100609.25;;;18.41;34.29
64792;BME280;51226;47.504;19.074;2022-11-25T11:26:31;100613.84;;;18.62;34.14
64792;BME280;51226;47.504;19.074;2022-11-25T11:29:35;100613.13;;;17.89;35.33
64792;BME280;51226;47.504;19.074;2022-11-25T11:32:41;100615.31;;;17.57;35.91
64792;BME280;51226;47.504;19.074;2022-11-25T11:42:12;100610.19;;;17.68;36.33
64792;BME280;51226;47.504;19.074;2022-11-25T11:48:33;100602.59;;;17.94;36.12
64792;BME280;51226;47.504;19.074;2022-11-25T11:52:25;100606.22;;;18.04;36.11
64792;BME280;51226;47.504;19.074;2022-11-25T11:55:37;100602.38;;;18.57;35.14
64792;BME280;51226;47.504;19.074;2022-11-25T11:59:10;100609.38;;;19.80;33.36
64792;BME280;51226;47.504;19.074;2022-11-25T12:05:32;100594.38;;;22.96;28.30
64792;BME280;51226;47.504;19.074;2022-11-25T12:08:45;100586.53;;;24.33;26.41
64792;BME280;51226;47.504;19.074;2022-11-25T12:11:59;100584.78;;;24.86;25.50
64792;BME280;51226;47.504;19.074;2022-11-25T12:15:33;100580.78;;;25.10;25.13
64792;BME280;51226;47.504;19.074;2022-11-25T12:18:49;100590.34;;;25.21;25.14
64792;BME280;51226;47.504;19.074;2022-11-25T12:22:02;100585.97;;;26.07;24.05
64792;BME280;51226;47.504;19.074;2022-11-25T12:25:40;100593.44;;;26.68;23.38
64792;BME280;51226;47.504;19.074;2022-11-25T12:29:02;100591.12;;;26.90;23.08
64792;BME280;51226;47.504;19.074;2022-11-25T12:36:03;100584.78;;;27.25;22.50
64792;BME280;51226;47.504;19.074;2022-11-25T12:39:33;100588.09;;;27.02;22.99
64792;BME280;51226;47.504;19.074;2022-11-25T12:42:41;100590.00;;;26.61;23.46
64792;BME280;51226;47.504;19.074;2022-11-25T12:47:17;100577.06;;;25.64;25.00
64792;BME280;51226;47.504;19.074;2022-11-25T12:51:15;100573.47;;;25.65;25.04
64792;BME280;51226;47.504;19.074;2022-11-25T12:55:12;100573.47;;;25.65;25.04
64792;BME280;51226;47.504;19.074;2022-11-25T13:04:51;100575.81;;;21.44;30.22
64792;BME280;51226;47.504;19.074;2022-11-25T13:18:24;100586.88;;;16.76;38.97
64792;BME280;51226;47.504;19.074;2022-11-25T13:21:29;100592.28;;;16.32;40.04
64792;BME280;51226;47.504;19.074;2022-11-25T13:24:39;100588.84;;;15.87;41.19
64792;BME280;51226;47.504;19.074;2022-11-25T13:30:46;100594.03;;;15.04;43.68
64792;BME280;51226;47.504;19.074;2022-11-25T13:34:01;100594.75;;;14.61;44.89
64792;BME280;51226;47.504;19.074;2022-11-25T13:37:34;100597.22;;;14.22;45.19
64792;BME280;51226;47.504;19.074;2022-11-25T13:40:38;100591.91;;;13.87;46.44
64792;BME280;51226;47.504;19.074;2022-11-25T13:47:30;100608.62;;;13.31;48.46
64792;BME280;51226;47.504;19.074;2022-11-25T13:50:34;100614.78;;;13.05;49.54
64792;BME280;51226;47.504;19.074;2022-11-25T13:54:02;100622.00;;;12.85;50.32
64792;BME280;51226;47.504;19.074;2022-11-25T14:06:36;100633.72;;;12.19;53.11
64792;BME280;51226;47.504;19.074;2022-11-25T14:13:37;100633.78;;;11.96;54.33
64792;BME280;51226;47.504;19.074;2022-11-25T14:26:53;100656.91;;;11.63;56.30
64792;BME280;51226;47.504;19.074;2022-11-25T14:30:06;100648.66;;;11.52;56.59
64792;BME280;51226;47.504;19.074;2022-11-25T14:33:13;100653.63;;;11.46;57.12
64792;BME280;51226;47.504;19.074;2022-11-25T14:36:23;100653.41;;;11.40;57.60
64792;BME280;51226;47.504;19.074;2022-11-25T14:39:34;100648.59;;;11.28;58.21
64792;BME280;51226;47.504;19.074;2022-11-25T14:42:42;100655.44;;;11.24;58.38
64792;BME280;51226;47.504;19.074;2022-11-25T14:45:47;100655.94;;;11.16;58.84
64792;BME280;51226;47.504;19.074;2022-11-25T14:49:02;100650.56;;;11.11;59.31
64792;BME280;51226;47.504;19.074;2022-11-25T14:52:27;100656.47;;;11.07;59.56
64792;BME280;51226;47.504;19.074;2022-11-25T14:55:31;100664.88;;;11.00;59.89
64792;BME280;51226;47.504;19.074;2022-11-25T14:58:34;100671.56;;;10.93;60.04
64792;BME280;51226;47.504;19.074;2022-11-25T15:01:52;100670.63;;;10.91;60.32
64792;BME280;51226;47.504;19.074;2022-11-25T15:08:10;100667.63;;;10.82;60.85
64792;BME280;51226;47.504;19.074;2022-11-25T15:11:17;100668.19;;;10.74;61.06
64792;BME280;51226;47.504;19.074;2022-11-25T15:14:30;100660.13;;;10.68;61.40
64792;BME280;51226;47.504;19.074;2022-11-25T15:17:35;100672.94;;;10.64;61.45
64792;BME280;51226;47.504;19.074;2022-11-25T15:20:45;100669.25;;;10.59;61.77
64792;BME280;51226;47.504;19.074;2022-11-25T15:23:50;100670.78;;;10.53;62.19
64792;BME280;51226;47.504;19.074;2022-11-25T15:26:58;100669.56;;;10.45;62.47
64792;BME280;51226;47.504;19.074;2022-11-25T15:30:25;100666.72;;;10.39;62.80
64792;BME280;51226;47.504;19.074;2022-11-25T15:33:29;100676.75;;;10.31;62.84
64792;BME280;51226;47.504;19.074;2022-11-25T15:36:32;100688.63;;;10.25;63.24
64792;BME280;51226;47.504;19.074;2022-11-25T15:39:36;100681.78;;;10.27;63.61
64792;BME280;51226;47.504;19.074;2022-11-25T15:42:40;100689.06;;;10.14;64.11
64792;BME280;51226;47.504;19.074;2022-11-25T15:45:45;100681.37;;;10.17;64.51
64792;BME280;51226;47.504;19.074;2022-11-25T15:48:50;100685.50;;;10.12;64.97
64792;BME280;51226;47.504;19.074;2022-11-25T15:52:05;100684.84;;;9.98;65.26
64792;BME280;51226;47.504;19.074;2022-11-25T15:55:35;100687.69;;;10.03;65.50
64792;BME280;51226;47.504;19.074;2022-11-25T15:58:41;100689.13;;;9.96;65.51
64792;BME280;51226;47.504;19.074;2022-11-25T16:01:44;100691.97;;;9.83;65.79
64792;BME280;51226;47.504;19.074;2022-11-25T16:04:47;100695.31;;;9.80;65.49
64792;BME280;51226;47.504;19.074;2022-11-25T16:10:58;100694.87;;;9.52;66.38
64792;BME280;51226;47.504;19.074;2022-11-25T16:14:25;100698.25;;;9.49;66.47
64792;BME280;51226;47.504;19.074;2022-11-25T16:17:29;100705.66;;;9.41;66.75
64792;BME280;51226;47.504;19.074;2022-11-25T16:20:33;100713.41;;;9.40;66.75
64792;BME280;51226;47.504;19.074;2022-11-25T16:23:39;100708.66;;;9.31;66.97
64792;BME280;51226;47.504;19.074;2022-11-25T16:26:55;100712.59;;;9.23;67.44
64792;BME280;51226;47.504;19.074;2022-11-25T16:33:08;100713.03;;;8.96;68.27
64792;BME280;51226;47.504;19.074;2022-11-25T16:36:12;100723.88;;;8.87;68.59
64792;BME280;51226;47.504;19.074;2022-11-25T16:39:15;100720.78;;;8.78;68.90
64792;BME280;51226;47.504;19.074;2022-11-25T16:42:19;100728.34;;;8.74;69.18
64792;BME280;51226;47.504;19.074;2022-11-25T16:45:25;100732.66;;;8.73;69.28
64792;BME280;51226;47.504;19.074;2022-11-25T16:48:28;100731.63;;;8.69;69.37
64792;BME280;51226;47.504;19.074;2022-11-25T16:51:31;100733.09;;;8.64;69.57
64792;BME280;51226;47.504;19.074;2022-11-25T16:54:34;100740.28;;;8.52;70.05
64792;BME280;51226;47.504;19.074;2022-11-25T16:57:40;100742.37;;;8.59;69.69
64792;BME280;51226;47.504;19.074;2022-11-25T17:00:48;100742.37;;;8.43;70.14
64792;BME280;51226;47.504;19.074;2022-11-25T17:03:52;100748.34;;;8.42;70.28
64792;BME280;51226;47.504;19.074;2022-11-25T17:06:55;100758.44;;;8.35;70.49
64792;BME280;51226;47.504;19.074;2022-11-25T17:10:19;100755.59;;;8.31;70.32
64792;BME280;51226;47.504;19.074;2022-11-25T17:13:23;100755.34;;;8.26;70.55
64792;BME280;51226;47.504;19.074;2022-11-25T17:16:27;100762.16;;;8.24;70.56
64792;BME280;51226;47.504;19.074;2022-11-25T17:19:30;100761.34;;;8.09;71.03
64792;BME280;51226;47.504;19.074;2022-11-25T17:22:33;100762.91;;;8.05;71.12
64792;BME280;51226;47.504;19.074;2022-11-25T17:25:45;100760.69;;;8.13;70.77
64792;BME280;51226;47.504;19.074;2022-11-25T17:28:55;100759.56;;;8.08;71.00
64792;BME280;51226;47.504;19.074;2022-11-25T17:32:00;100757.44;;;8.01;71.25
64792;BME280;51226;47.504;19.074;2022-11-25T17:35:14;100771.16;;;7.98;71.47
64792;BME280;51226;47.504;19.074;2022-11-25T17:38:19;100771.06;;;7.96;71.24
64792;BME280;51226;47.504;19.074;2022-11-25T17:41:23;100773.78;;;7.83;71.84
64792;BME280;51226;47.504;19.074;2022-11-25T17:44:28;100774.78;;;7.85;72.09
64792;BME280;51226;47.504;19.074;2022-11-25T17:47:31;100778.09;;;7.83;72.12
64792;BME280;51226;47.504;19.074;2022-11-25T17:50:34;100775.78;;;7.87;71.87
64792;BME280;51226;47.504;19.074;2022-11-25T17:53:38;100774.53;;;7.81;71.73
64792;BME280;51226;47.504;19.074;2022-11-25T17:56:43;100780.44;;;7.78;71.96